sensor_id;sensor_type;location;lat;lon;timestamp;pressure;altitude;pressure_sealevel;temperature;humidity
59686;BME280;45554;51.096;16.976;2022-12-19T00:00:41;102062.83;;;-8.25;75.80
59686;BME280;45554;51.096;16.976;2022-12-19T00:03:24;102065.12;;;-8.27;76.13
59686;BME280;45554;51.096;16.976;2022-12-19T00:05:52;102059.17;;;-8.27;76.02
59686;BME280;45554;51.096;16.976;2022-12-19T00:08:21;102051.13;;;-8.28;76.02
59686;BME280;45554;51.096;16.976;2022-12-19T00:10:54;102048.17;;;-8.29;76.11
59686;BME280;45554;51.096;16.976;2022-12-19T00:13:24;102049.89;;;-8.32;76.16
59686;BME280;45554;51.096;16.976;2022-12-19T00:15:53;102052.70;;;-8.34;75.87
59686;BME280;45554;51.096;16.976;2022-12-19T00:18:22;102048.20;;;-8.35;75.81
59686;BME280;45554;51.096;16.976;2022-12-19T00:20:55;102042.59;;;-8.39;75.76
59686;BME280;45554;51.096;16.976;2022-12-19T00:23:23;102037.75;;;-8.40;76.15
59686;BME280;45554;51.096;16.976;2022-12-19T00:25:52;102041.95;;;-8.41;75.92
59686;BME280;45554;51.096;16.976;2022-12-19T00:28:21;102044.73;;;-8.43;75.72
59686;BME280;45554;51.096;16.976;2022-12-19T00:30:50;102034.81;;;-8.45;75.95
59686;BME280;45554;51.096;16.976;2022-12-19T00:33:23;102031.02;;;-8.45;76.00
59686;BME280;45554;51.096;16.976;2022-12-19T00:35:56;102029.15;;;-8.46;76.01
59686;BME280;45554;51.096;16.976;2022-12-19T00:38:25;102029.42;;;-8.44;76.24
59686;BME280;45554;51.096;16.976;2022-12-19T00:40:53;102033.72;;;-8.43;75.96
59686;BME280;45554;51.096;16.976;2022-12-19T00:43:21;102036.60;;;-8.43;76.03
59686;BME280;45554;51.096;16.976;2022-12-19T00:45:50;102032.73;;;-8.42;75.99
59686;BME280;45554;51.096;16.976;2022-12-19T00:48:18;102031.02;;;-8.42;75.82
59686;BME280;45554;51.096;16.976;2022-12-19T00:50:46;102028.86;;;-8.41;75.85
59686;BME280;45554;51.096;16.976;2022-12-19T00:53:15;102032.83;;;-8.40;75.90
59686;BME280;45554;51.096;16.976;2022-12-19T00:55:43;102033.73;;;-8.39;75.84
59686;BME280;45554;51.096;16.976;2022-12-19T00:58:11;102018.55;;;-8.36;75.84
59686;BME280;45554;51.096;16.976;2022-12-19T01:01:30;102020.49;;;-8.35;76.02
59686;BME280;45554;51.096;16.976;2022-12-19T01:04:01;102017.95;;;-8.32;75.49
59686;BME280;45554;51.096;16.976;2022-12-19T01:06:51;102027.70;;;-8.31;75.66
59686;BME280;45554;51.096;16.976;2022-12-19T01:09:19;102027.99;;;-8.31;75.39
59686;BME280;45554;51.096;16.976;2022-12-19T01:11:50;102019.40;;;-8.33;75.58
59686;BME280;45554;51.096;16.976;2022-12-19T01:14:38;102012.20;;;-8.34;75.52
59686;BME280;45554;51.096;16.976;2022-12-19T01:17:07;102013.67;;;-8.32;76.03
59686;BME280;45554;51.096;16.976;2022-12-19T01:19:38;102007.16;;;-8.30;75.82
59686;BME280;45554;51.096;16.976;2022-12-19T01:22:11;101997.74;;;-8.27;75.72
59686;BME280;45554;51.096;16.976;2022-12-19T01:24:41;101989.48;;;-8.26;75.63
59686;BME280;45554;51.096;16.976;2022-12-19T01:27:09;101986.19;;;-8.24;75.55
59686;BME280;45554;51.096;16.976;2022-12-19T01:29:38;101980.30;;;-8.22;75.48
59686;BME280;45554;51.096;16.976;2022-12-19T01:32:21;101978.02;;;-8.20;75.84
59686;BME280;45554;51.096;16.976;2022-12-19T01:34:51;101970.95;;;-8.19;75.83
59686;BME280;45554;51.096;16.976;2022-12-19T01:37:19;101965.00;;;-8.18;75.82
59686;BME280;45554;51.096;16.976;2022-12-19T01:39:47;101962.10;;;-8.18;75.41
59686;BME280;45554;51.096;16.976;2022-12-19T01:42:17;101951.90;;;-8.18;75.49
59686;BME280;45554;51.096;16.976;2022-12-19T01:50:17;101931.75;;;-8.20;75.26
59686;BME280;45554;51.096;16.976;2022-12-19T01:52:46;101930.98;;;-8.22;75.36
59686;BME280;45554;51.096;16.976;2022-12-19T01:55:14;101920.33;;;-8.24;75.38
59686;BME280;45554;51.096;16.976;2022-12-19T01:57:42;101913.68;;;-8.24;75.45
59686;BME280;45554;51.096;16.976;2022-12-19T02:00:11;101914.48;;;-8.25;75.30
59686;BME280;45554;51.096;16.976;2022-12-19T02:02:46;101915.64;;;-8.26;75.59
59686;BME280;45554;51.096;16.976;2022-12-19T02:05:16;101908.41;;;-8.28;75.21
59686;BME280;45554;51.096;16.976;2022-12-19T02:07:45;101911.20;;;-8.30;75.50
59686;BME280;45554;51.096;16.976;2022-12-19T02:10:12;101909.77;;;-8.31;75.44
59686;BME280;45554;51.096;16.976;2022-12-19T02:12:42;101911.73;;;-8.30;75.37
59686;BME280;45554;51.096;16.976;2022-12-19T02:15:14;101914.85;;;-8.29;75.59
59686;BME280;45554;51.096;16.976;2022-12-19T02:18:04;101904.80;;;-8.29;75.66
59686;BME280;45554;51.096;16.976;2022-12-19T02:23:37;101885.55;;;-8.26;75.82
59686;BME280;45554;51.096;16.976;2022-12-19T02:32:05;101875.67;;;-8.19;75.94
59686;BME280;45554;51.096;16.976;2022-12-19T02:38:11;101875.47;;;-8.16;75.79
59686;BME280;45554;51.096;16.976;2022-12-19T02:40:49;101866.71;;;-8.14;75.71
59686;BME280;45554;51.096;16.976;2022-12-19T02:43:24;101866.21;;;-8.14;75.61
59686;BME280;45554;51.096;16.976;2022-12-19T02:45:56;101866.15;;;-8.15;75.99
59686;BME280;45554;51.096;16.976;2022-12-19T02:48:25;101863.04;;;-8.16;75.53
59686;BME280;45554;51.096;16.976;2022-12-19T02:50:54;101851.34;;;-8.15;75.75
59686;BME280;45554;51.096;16.976;2022-12-19T02:53:24;101843.46;;;-8.17;75.49
59686;BME280;45554;51.096;16.976;2022-12-19T02:58:57;101836.37;;;-8.19;75.74
59686;BME280;45554;51.096;16.976;2022-12-19T03:07:29;101835.89;;;-8.18;75.34
59686;BME280;45554;51.096;16.976;2022-12-19T03:12:57;101837.00;;;-8.20;75.55
59686;BME280;45554;51.096;16.976;2022-12-19T03:15:28;101838.90;;;-8.19;75.79
59686;BME280;45554;51.096;16.976;2022-12-19T03:17:58;101829.13;;;-8.21;75.36
59686;BME280;45554;51.096;16.976;2022-12-19T03:20:43;101817.11;;;-8.23;75.62
59686;BME280;45554;51.096;16.976;2022-12-19T03:23:12;101808.75;;;-8.24;75.41
59686;BME280;45554;51.096;16.976;2022-12-19T03:25:45;101791.17;;;-8.25;75.49
59686;BME280;45554;51.096;16.976;2022-12-19T03:28:21;101801.70;;;-8.25;75.25
59686;BME280;45554;51.096;16.976;2022-12-19T03:30:50;101803.11;;;-8.24;75.39
59686;BME280;45554;51.096;16.976;2022-12-19T03:33:21;101805.05;;;-8.23;75.88
59686;BME280;45554;51.096;16.976;2022-12-19T03:35:51;101803.71;;;-8.22;75.66
59686;BME280;45554;51.096;16.976;2022-12-19T03:38:19;101804.45;;;-8.21;75.43
59686;BME280;45554;51.096;16.976;2022-12-19T03:40:48;101807.77;;;-8.19;75.72
59686;BME280;45554;51.096;16.976;2022-12-19T03:43:17;101806.77;;;-8.19;75.45
59686;BME280;45554;51.096;16.976;2022-12-19T03:46:08;101802.52;;;-8.19;75.35
59686;BME280;45554;51.096;16.976;2022-12-19T03:48:42;101799.84;;;-8.21;75.05
59686;BME280;45554;51.096;16.976;2022-12-19T03:51:40;101789.04;;;-8.23;75.38
59686;BME280;45554;51.096;16.976;2022-12-19T03:54:20;101779.94;;;-8.21;75.87
59686;BME280;45554;51.096;16.976;2022-12-19T03:56:57;101771.98;;;-8.21;75.53
59686;BME280;45554;51.096;16.976;2022-12-19T04:02:01;101773.27;;;-8.19;75.58
59686;BME280;45554;51.096;16.976;2022-12-19T04:04:35;101766.52;;;-8.17;75.52
59686;BME280;45554;51.096;16.976;2022-12-19T04:07:04;101765.38;;;-8.17;75.74
59686;BME280;45554;51.096;16.976;2022-12-19T04:09:33;101765.96;;;-8.14;75.88
59686;BME280;45554;51.096;16.976;2022-12-19T04:12:07;101768.36;;;-8.14;75.73
59686;BME280;45554;51.096;16.976;2022-12-19T04:14:37;101776.85;;;-8.11;75.74
59686;BME280;45554;51.096;16.976;2022-12-19T04:17:33;101770.07;;;-8.10;75.45
59686;BME280;45554;51.096;16.976;2022-12-19T04:20:08;101764.83;;;-8.09;75.51
59686;BME280;45554;51.096;16.976;2022-12-19T04:22:43;101763.17;;;-8.08;75.55
59686;BME280;45554;51.096;16.976;2022-12-19T04:25:20;101765.71;;;-8.09;75.69
59686;BME280;45554;51.096;16.976;2022-12-19T04:28:03;101762.20;;;-8.07;75.59
59686;BME280;45554;51.096;16.976;2022-12-19T04:30:33;101749.81;;;-8.06;75.50
59686;BME280;45554;51.096;16.976;2022-12-19T04:33:03;101749.69;;;-8.06;75.63
59686;BME280;45554;51.096;16.976;2022-12-19T04:35:34;101752.16;;;-8.04;75.50
59686;BME280;45554;51.096;16.976;2022-12-19T04:38:02;101753.41;;;-8.02;75.50
59686;BME280;45554;51.096;16.976;2022-12-19T04:40:33;101748.95;;;-7.99;75.69
59686;BME280;45554;51.096;16.976;2022-12-19T04:43:07;101743.66;;;-7.95;75.68
59686;BME280;45554;51.096;16.976;2022-12-19T04:45:36;101739.31;;;-7.94;76.06
59686;BME280;45554;51.096;16.976;2022-12-19T04:48:04;101740.34;;;-7.90;75.85
59686;BME280;45554;51.096;16.976;2022-12-19T04:50:35;101733.09;;;-7.88;76.02
59686;BME280;45554;51.096;16.976;2022-12-19T04:53:03;101731.11;;;-7.87;75.56
59686;BME280;45554;51.096;16.976;2022-12-19T04:55:31;101731.85;;;-7.85;75.78
59686;BME280;45554;51.096;16.976;2022-12-19T04:57:59;101732.10;;;-7.83;75.53
59686;BME280;45554;51.096;16.976;2022-12-19T05:00:27;101728.31;;;-7.85;75.43
59686;BME280;45554;51.096;16.976;2022-12-19T05:02:55;101724.21;;;-7.85;75.49
59686;BME280;45554;51.096;16.976;2022-12-19T05:05:23;101716.12;;;-7.83;75.43
59686;BME280;45554;51.096;16.976;2022-12-19T05:07:51;101715.68;;;-7.81;75.51
59686;BME280;45554;51.096;16.976;2022-12-19T05:10:19;101718.64;;;-7.80;75.56
59686;BME280;45554;51.096;16.976;2022-12-19T05:12:47;101719.73;;;-7.78;75.54
59686;BME280;45554;51.096;16.976;2022-12-19T05:15:15;101732.33;;;-7.78;75.58
59686;BME280;45554;51.096;16.976;2022-12-19T05:17:43;101736.85;;;-7.76;75.53
59686;BME280;45554;51.096;16.976;2022-12-19T05:20:11;101735.52;;;-7.75;75.55
59686;BME280;45554;51.096;16.976;2022-12-19T05:22:39;101738.43;;;-7.75;75.58
59686;BME280;45554;51.096;16.976;2022-12-19T05:25:07;101744.79;;;-7.74;75.88
59686;BME280;45554;51.096;16.976;2022-12-19T05:27:35;101746.58;;;-7.71;75.61
59686;BME280;45554;51.096;16.976;2022-12-19T05:30:04;101741.80;;;-7.72;75.61
59686;BME280;45554;51.096;16.976;2022-12-19T05:32:32;101733.99;;;-7.71;75.44
59686;BME280;45554;51.096;16.976;2022-12-19T05:35:01;101723.31;;;-7.70;75.44
59686;BME280;45554;51.096;16.976;2022-12-19T05:37:29;101722.46;;;-7.70;75.39
59686;BME280;45554;51.096;16.976;2022-12-19T05:39:56;101724.48;;;-7.71;75.52
59686;BME280;45554;51.096;16.976;2022-12-19T05:42:24;101716.98;;;-7.70;75.51
59686;BME280;45554;51.096;16.976;2022-12-19T05:44:53;101712.23;;;-7.71;75.70
59686;BME280;45554;51.096;16.976;2022-12-19T05:47:20;101707.04;;;-7.68;75.36
59686;BME280;45554;51.096;16.976;2022-12-19T05:49:48;101701.17;;;-7.70;75.45
59686;BME280;45554;51.096;16.976;2022-12-19T05:52:16;101699.27;;;-7.71;75.52
59686;BME280;45554;51.096;16.976;2022-12-19T05:54:44;101695.72;;;-7.70;75.54
59686;BME280;45554;51.096;16.976;2022-12-19T05:57:12;101707.59;;;-7.67;75.48
59686;BME280;45554;51.096;16.976;2022-12-19T05:59:40;101701.84;;;-7.66;75.45
59686;BME280;45554;51.096;16.976;2022-12-19T06:02:08;101685.75;;;-7.65;75.49
59686;BME280;45554;51.096;16.976;2022-12-19T06:04:36;101686.73;;;-7.62;75.73
59686;BME280;45554;51.096;16.976;2022-12-19T06:07:04;101692.48;;;-7.59;75.97
59686;BME280;45554;51.096;16.976;2022-12-19T06:09:32;101694.84;;;-7.54;76.12
59686;BME280;45554;51.096;16.976;2022-12-19T06:12:00;101686.34;;;-7.50;76.10
59686;BME280;45554;51.096;16.976;2022-12-19T06:14:28;101690.85;;;-7.44;75.84
59686;BME280;45554;51.096;16.976;2022-12-19T06:16:56;101679.79;;;-7.39;76.03
59686;BME280;45554;51.096;16.976;2022-12-19T06:19:24;101670.63;;;-7.35;75.92
59686;BME280;45554;51.096;16.976;2022-12-19T06:21:52;101669.70;;;-7.28;76.00
59686;BME280;45554;51.096;16.976;2022-12-19T06:24:23;101675.52;;;-7.23;75.82
59686;BME280;45554;51.096;16.976;2022-12-19T06:26:51;101678.29;;;-7.18;76.13
59686;BME280;45554;51.096;16.976;2022-12-19T06:29:19;101681.65;;;-7.11;76.13
59686;BME280;45554;51.096;16.976;2022-12-19T06:31:47;101680.73;;;-7.03;76.28
59686;BME280;45554;51.096;16.976;2022-12-19T06:34:15;101678.26;;;-6.97;76.04
59686;BME280;45554;51.096;16.976;2022-12-19T06:37:03;101688.78;;;-6.89;75.92
59686;BME280;45554;51.096;16.976;2022-12-19T06:39:35;101700.05;;;-6.84;76.05
59686;BME280;45554;51.096;16.976;2022-12-19T06:42:03;101695.99;;;-6.79;75.87
59686;BME280;45554;51.096;16.976;2022-12-19T06:44:54;101698.50;;;-6.76;75.79
59686;BME280;45554;51.096;16.976;2022-12-19T06:47:23;101688.48;;;-6.75;75.64
59686;BME280;45554;51.096;16.976;2022-12-19T06:49:54;101682.26;;;-6.72;75.91
59686;BME280;45554;51.096;16.976;2022-12-19T06:52:23;101677.09;;;-6.69;75.69
59686;BME280;45554;51.096;16.976;2022-12-19T06:54:50;101666.98;;;-6.67;75.70
59686;BME280;45554;51.096;16.976;2022-12-19T06:57:18;101667.92;;;-6.64;75.78
59686;BME280;45554;51.096;16.976;2022-12-19T06:59:46;101670.14;;;-6.59;75.75
59686;BME280;45554;51.096;16.976;2022-12-19T07:02:22;101666.22;;;-6.55;75.91
59686;BME280;45554;51.096;16.976;2022-12-19T07:04:58;101673.61;;;-6.48;75.73
59686;BME280;45554;51.096;16.976;2022-12-19T07:07:29;101669.36;;;-6.43;75.70
59686;BME280;45554;51.096;16.976;2022-12-19T07:09:57;101661.09;;;-6.41;75.64
59686;BME280;45554;51.096;16.976;2022-12-19T07:12:26;101661.01;;;-6.34;75.80
59686;BME280;45554;51.096;16.976;2022-12-19T07:14:54;101655.96;;;-6.27;75.64
59686;BME280;45554;51.096;16.976;2022-12-19T07:17:23;101657.02;;;-6.21;75.67
59686;BME280;45554;51.096;16.976;2022-12-19T07:19:53;101659.71;;;-6.13;75.73
59686;BME280;45554;51.096;16.976;2022-12-19T07:22:23;101657.22;;;-6.06;75.48
59686;BME280;45554;51.096;16.976;2022-12-19T07:24:53;101648.73;;;-5.99;75.49
59686;BME280;45554;51.096;16.976;2022-12-19T07:27:22;101646.59;;;-5.92;75.56
59686;BME280;45554;51.096;16.976;2022-12-19T07:29:50;101639.46;;;-5.85;75.37
59686;BME280;45554;51.096;16.976;2022-12-19T07:32:18;101639.80;;;-5.80;75.10
59686;BME280;45554;51.096;16.976;2022-12-19T07:34:48;101635.70;;;-5.75;75.14
59686;BME280;45554;51.096;16.976;2022-12-19T07:37:17;101642.73;;;-5.69;75.12
59686;BME280;45554;51.096;16.976;2022-12-19T07:39:44;101644.98;;;-5.63;75.10
59686;BME280;45554;51.096;16.976;2022-12-19T07:42:13;101629.50;;;-5.56;75.07
59686;BME280;45554;51.096;16.976;2022-12-19T07:44:48;101635.91;;;-5.48;75.08
59686;BME280;45554;51.096;16.976;2022-12-19T07:47:20;101633.63;;;-5.39;74.97
59686;BME280;45554;51.096;16.976;2022-12-19T07:49:48;101631.70;;;-5.30;74.81
59686;BME280;45554;51.096;16.976;2022-12-19T07:52:16;101622.68;;;-5.23;74.74
59686;BME280;45554;51.096;16.976;2022-12-19T07:54:43;101625.02;;;-5.09;74.69
59686;BME280;45554;51.096;16.976;2022-12-19T07:57:11;101616.96;;;-4.98;74.61
59686;BME280;45554;51.096;16.976;2022-12-19T07:59:39;101613.39;;;-4.91;74.45
59686;BME280;45554;51.096;16.976;2022-12-19T08:02:08;101618.45;;;-4.82;74.21
59686;BME280;45554;51.096;16.976;2022-12-19T08:04:36;101631.09;;;-4.71;74.03
59686;BME280;45554;51.096;16.976;2022-12-19T08:07:04;101632.42;;;-4.61;74.14
59686;BME280;45554;51.096;16.976;2022-12-19T08:09:32;101634.14;;;-4.48;74.04
59686;BME280;45554;51.096;16.976;2022-12-19T08:12:05;101623.36;;;-4.36;73.91
59686;BME280;45554;51.096;16.976;2022-12-19T08:14:33;101608.60;;;-4.25;73.56
59686;BME280;45554;51.096;16.976;2022-12-19T08:17:01;101615.42;;;-4.13;73.71
59686;BME280;45554;51.096;16.976;2022-12-19T08:19:49;101619.55;;;-4.00;73.32
59686;BME280;45554;51.096;16.976;2022-12-19T08:22:17;101617.80;;;-3.88;73.38
59686;BME280;45554;51.096;16.976;2022-12-19T08:24:45;101611.58;;;-3.77;72.90
59686;BME280;45554;51.096;16.976;2022-12-19T08:27:15;101610.14;;;-3.65;72.93
59686;BME280;45554;51.096;16.976;2022-12-19T08:29:43;101610.89;;;-3.55;72.82
59686;BME280;45554;51.096;16.976;2022-12-19T08:32:11;101606.52;;;-3.45;72.62
59686;BME280;45554;51.096;16.976;2022-12-19T08:34:47;101596.95;;;-3.36;72.30
59686;BME280;45554;51.096;16.976;2022-12-19T08:37:16;101592.48;;;-3.30;72.39
59686;BME280;45554;51.096;16.976;2022-12-19T08:39:45;101597.11;;;-3.22;72.32
59686;BME280;45554;51.096;16.976;2022-12-19T08:42:13;101589.98;;;-3.18;71.91
59686;BME280;45554;51.096;16.976;2022-12-19T08:44:40;101578.54;;;-3.17;71.62
59686;BME280;45554;51.096;16.976;2022-12-19T08:47:09;101577.64;;;-3.18;71.54
59686;BME280;45554;51.096;16.976;2022-12-19T08:49:43;101577.13;;;-3.18;71.61
59686;BME280;45554;51.096;16.976;2022-12-19T08:52:11;101576.81;;;-3.17;71.68
59686;BME280;45554;51.096;16.976;2022-12-19T08:54:43;101573.59;;;-3.15;71.53
59686;BME280;45554;51.096;16.976;2022-12-19T08:57:11;101574.31;;;-3.13;71.67
59686;BME280;45554;51.096;16.976;2022-12-19T08:59:39;101578.81;;;-3.12;71.42
59686;BME280;45554;51.096;16.976;2022-12-19T09:02:10;101575.56;;;-3.11;71.20
59686;BME280;45554;51.096;16.976;2022-12-19T09:04:39;101571.30;;;-3.11;71.15
59686;BME280;45554;51.096;16.976;2022-12-19T09:07:27;101569.77;;;-3.09;71.16
59686;BME280;45554;51.096;16.976;2022-12-19T09:09:56;101576.77;;;-3.04;71.30
59686;BME280;45554;51.096;16.976;2022-12-19T09:12:23;101579.83;;;-2.97;71.24
59686;BME280;45554;51.096;16.976;2022-12-19T09:14:54;101579.10;;;-2.91;71.13
59686;BME280;45554;51.096;16.976;2022-12-19T09:17:22;101574.09;;;-2.84;71.02
59686;BME280;45554;51.096;16.976;2022-12-19T09:19:51;101577.20;;;-2.75;71.13
59686;BME280;45554;51.096;16.976;2022-12-19T09:22:19;101580.33;;;-2.64;71.09
59686;BME280;45554;51.096;16.976;2022-12-19T09:24:54;101569.06;;;-2.52;71.00
59686;BME280;45554;51.096;16.976;2022-12-19T09:27:22;101564.82;;;-2.41;70.75
59686;BME280;45554;51.096;16.976;2022-12-19T09:29:52;101559.52;;;-2.30;70.84
59686;BME280;45554;51.096;16.976;2022-12-19T09:32:20;101557.02;;;-2.17;70.73
59686;BME280;45554;51.096;16.976;2022-12-19T09:34:48;101557.08;;;-2.04;70.55
59686;BME280;45554;51.096;16.976;2022-12-19T09:37:18;101552.48;;;-1.91;70.51
59686;BME280;45554;51.096;16.976;2022-12-19T09:39:46;101552.20;;;-1.76;70.37
59686;BME280;45554;51.096;16.976;2022-12-19T09:48:00;101534.95;;;-1.35;69.75
59686;BME280;45554;51.096;16.976;2022-12-19T09:50:38;101527.17;;;-1.25;69.31
59686;BME280;45554;51.096;16.976;2022-12-19T09:53:22;101514.05;;;-1.16;69.06
59686;BME280;45554;51.096;16.976;2022-12-19T09:55:57;101508.09;;;-1.11;68.74
59686;BME280;45554;51.096;16.976;2022-12-19T09:58:38;101516.97;;;-1.03;68.82
59686;BME280;45554;51.096;16.976;2022-12-19T10:01:18;101513.14;;;-0.93;69.03
59686;BME280;45554;51.096;16.976;2022-12-19T10:03:56;101515.88;;;-0.80;69.06
59686;BME280;45554;51.096;16.976;2022-12-19T10:06:27;101505.20;;;-0.66;68.51
59686;BME280;45554;51.096;16.976;2022-12-19T10:09:18;101492.77;;;-0.53;68.59
59686;BME280;45554;51.096;16.976;2022-12-19T10:12:46;101498.02;;;-0.44;68.22
59686;BME280;45554;51.096;16.976;2022-12-19T10:27:43;101450.34;;;0.01;66.84
59686;BME280;45554;51.096;16.976;2022-12-19T10:30:30;101456.61;;;0.09;66.00
59686;BME280;45554;51.096;16.976;2022-12-19T10:35:52;101457.91;;;0.25;66.48
59686;BME280;45554;51.096;16.976;2022-12-19T10:38:34;101456.59;;;0.32;66.48
59686;BME280;45554;51.096;16.976;2022-12-19T10:41:27;101453.52;;;0.39;66.08
59686;BME280;45554;51.096;16.976;2022-12-19T10:44:04;101453.92;;;0.51;66.33
59686;BME280;45554;51.096;16.976;2022-12-19T10:49:18;101434.67;;;0.66;65.60
59686;BME280;45554;51.096;16.976;2022-12-19T10:57:26;101443.77;;;0.95;65.82
59686;BME280;45554;51.096;16.976;2022-12-19T10:59:59;101443.81;;;1.08;65.75
59686;BME280;45554;51.096;16.976;2022-12-19T11:05:21;101430.59;;;1.38;64.99
59686;BME280;45554;51.096;16.976;2022-12-19T11:13:42;101408.48;;;1.82;64.80
59686;BME280;45554;51.096;16.976;2022-12-19T11:16:35;101403.46;;;1.94;65.21
59686;BME280;45554;51.096;16.976;2022-12-19T11:19:35;101395.48;;;2.07;65.87
59686;BME280;45554;51.096;16.976;2022-12-19T11:22:25;101382.64;;;2.23;65.15
59686;BME280;45554;51.096;16.976;2022-12-19T11:25:22;101374.14;;;2.31;64.05
59686;BME280;45554;51.096;16.976;2022-12-19T11:28:37;101365.14;;;2.33;63.35
59686;BME280;45554;51.096;16.976;2022-12-19T11:31:27;101363.07;;;2.32;63.47
59686;BME280;45554;51.096;16.976;2022-12-19T11:34:20;101359.62;;;2.31;62.85
59686;BME280;45554;51.096;16.976;2022-12-19T11:39:51;101348.20;;;2.30;62.31
59686;BME280;45554;51.096;16.976;2022-12-19T11:45:55;101348.05;;;2.23;62.21
59686;BME280;45554;51.096;16.976;2022-12-19T11:48:33;101345.80;;;2.23;62.53
59686;BME280;45554;51.096;16.976;2022-12-19T11:51:13;101341.45;;;2.25;62.06
59686;BME280;45554;51.096;16.976;2022-12-19T11:53:52;101333.86;;;2.24;62.00
59686;BME280;45554;51.096;16.976;2022-12-19T11:56:23;101329.52;;;2.27;62.30
59686;BME280;45554;51.096;16.976;2022-12-19T11:58:54;101327.08;;;2.34;62.57
59686;BME280;45554;51.096;16.976;2022-12-19T12:03:58;101304.40;;;2.37;61.76
59686;BME280;45554;51.096;16.976;2022-12-19T12:06:31;101311.48;;;2.40;61.59
59686;BME280;45554;51.096;16.976;2022-12-19T12:12:27;101321.01;;;2.38;61.37
59686;BME280;45554;51.096;16.976;2022-12-19T12:15:49;101331.04;;;2.40;61.46
59686;BME280;45554;51.096;16.976;2022-12-19T12:21:58;101339.52;;;2.39;60.92
59686;BME280;45554;51.096;16.976;2022-12-19T12:31:23;101327.16;;;2.53;60.64
59686;BME280;45554;51.096;16.976;2022-12-19T12:37:33;101310.19;;;2.58;60.93
59686;BME280;45554;51.096;16.976;2022-12-19T12:40:46;101308.77;;;2.61;60.53
59686;BME280;45554;51.096;16.976;2022-12-19T12:43:48;101304.61;;;2.61;60.53
59686;BME280;45554;51.096;16.976;2022-12-19T12:46:22;101300.13;;;2.63;60.50
59686;BME280;45554;51.096;16.976;2022-12-19T12:49:00;101296.48;;;2.63;60.48
59686;BME280;45554;51.096;16.976;2022-12-19T12:51:31;101290.08;;;2.61;60.49
59686;BME280;45554;51.096;16.976;2022-12-19T12:54:04;101286.10;;;2.61;60.47
59686;BME280;45554;51.096;16.976;2022-12-19T12:56:38;101267.06;;;2.63;60.38
59686;BME280;45554;51.096;16.976;2022-12-19T12:59:26;101267.92;;;2.64;60.33
59686;BME280;45554;51.096;16.976;2022-12-19T13:02:21;101259.59;;;2.70;60.42
59686;BME280;45554;51.096;16.976;2022-12-19T13:04:59;101257.11;;;2.74;60.13
59686;BME280;45554;51.096;16.976;2022-12-19T13:07:49;101266.81;;;2.74;59.90
59686;BME280;45554;51.096;16.976;2022-12-19T13:10:23;101273.05;;;2.73;59.49
59686;BME280;45554;51.096;16.976;2022-12-19T13:13:07;101259.55;;;2.72;60.09
59686;BME280;45554;51.096;16.976;2022-12-19T13:15:45;101256.59;;;2.74;60.42
59686;BME280;45554;51.096;16.976;2022-12-19T13:18:32;101258.68;;;2.74;60.19
59686;BME280;45554;51.096;16.976;2022-12-19T13:21:03;101263.23;;;2.65;60.06
59686;BME280;45554;51.096;16.976;2022-12-19T13:26:03;101270.09;;;2.46;60.16
59686;BME280;45554;51.096;16.976;2022-12-19T13:28:36;101272.75;;;2.36;60.34
59686;BME280;45554;51.096;16.976;2022-12-19T13:36:49;101288.27;;;2.07;60.68
59686;BME280;45554;51.096;16.976;2022-12-19T13:42:37;101275.89;;;1.82;60.87
59686;BME280;45554;51.096;16.976;2022-12-19T13:45:47;101267.28;;;1.69;61.33
59686;BME280;45554;51.096;16.976;2022-12-19T13:48:30;101265.92;;;1.60;61.49
59686;BME280;45554;51.096;16.976;2022-12-19T13:51:06;101259.19;;;1.52;61.98
59686;BME280;45554;51.096;16.976;2022-12-19T13:53:35;101261.63;;;1.50;62.43
59686;BME280;45554;51.096;16.976;2022-12-19T13:56:10;101256.61;;;1.50;62.37
59686;BME280;45554;51.096;16.976;2022-12-19T13:58:48;101255.06;;;1.49;62.40
59686;BME280;45554;51.096;16.976;2022-12-19T14:01:24;101254.03;;;1.46;62.64
59686;BME280;45554;51.096;16.976;2022-12-19T14:03:56;101254.90;;;1.43;62.78
59686;BME280;45554;51.096;16.976;2022-12-19T14:06:45;101249.73;;;1.36;62.66
59686;BME280;45554;51.096;16.976;2022-12-19T14:09:46;101254.05;;;1.30;62.86
59686;BME280;45554;51.096;16.976;2022-12-19T14:12:42;101254.39;;;1.30;63.28
59686;BME280;45554;51.096;16.976;2022-12-19T14:15:49;101251.29;;;1.23;62.91
59686;BME280;45554;51.096;16.976;2022-12-19T14:18:28;101255.09;;;1.16;62.96
59686;BME280;45554;51.096;16.976;2022-12-19T14:21:21;101250.77;;;1.07;63.00
59686;BME280;45554;51.096;16.976;2022-12-19T14:24:19;101246.80;;;1.00;63.58
59686;BME280;45554;51.096;16.976;2022-12-19T14:26:56;101255.60;;;0.99;63.78
59686;BME280;45554;51.096;16.976;2022-12-19T14:29:51;101261.31;;;0.98;63.82
59686;BME280;45554;51.096;16.976;2022-12-19T14:32:41;101253.19;;;0.99;64.17
59686;BME280;45554;51.096;16.976;2022-12-19T14:35:32;101251.98;;;1.00;64.21
59686;BME280;45554;51.096;16.976;2022-12-19T14:38:24;101251.13;;;0.99;64.07
59686;BME280;45554;51.096;16.976;2022-12-19T14:41:38;101249.23;;;0.94;64.09
59686;BME280;45554;51.096;16.976;2022-12-19T14:47:38;101253.36;;;0.91;64.13
59686;BME280;45554;51.096;16.976;2022-12-19T14:50:33;101249.56;;;0.89;64.28
59686;BME280;45554;51.096;16.976;2022-12-19T14:53:22;101257.33;;;0.90;64.61
59686;BME280;45554;51.096;16.976;2022-12-19T14:56:16;101258.54;;;0.90;64.49
59686;BME280;45554;51.096;16.976;2022-12-19T14:59:04;101256.29;;;0.91;64.89
59686;BME280;45554;51.096;16.976;2022-12-19T15:01:41;101251.64;;;0.92;64.67
59686;BME280;45554;51.096;16.976;2022-12-19T15:04:20;101240.94;;;0.94;65.04
59686;BME280;45554;51.096;16.976;2022-12-19T15:07:34;101237.31;;;0.94;64.77
59686;BME280;45554;51.096;16.976;2022-12-19T15:13:22;101228.50;;;0.85;64.82
59686;BME280;45554;51.096;16.976;2022-12-19T15:16:31;101222.47;;;0.81;64.94